Time;durP1;ratioP1;P1;durP2;ratioP2;P2;SDS_P1;SDS_P2;PMS_P1;PMS_P2;Temp;Humidity;BMP_temperature;BMP_pressure;BME280_temperature;BME280_humidity;BME280_pressure;Samples;Min_cycle;Max_cycle;Signal;HPM_P1;HPM_P2
2022/07/14 00:01:08;;;;;;;1.15;1.05;;;22.10;58.40;;;;;;5019551;28;20118;-84
2022/07/14 00:03:34;;;;;;;1.25;1.15;;;22.10;58.50;;;;;;5001733;28;20285;-84
2022/07/14 00:05:59;;;;;;;0.82;0.77;;;22.10;58.60;;;;;;5019331;28;20383;-84
2022/07/14 00:08:25;;;;;;;1.55;0.95;;;22.10;58.60;;;;;;5019026;28;20022;-83
2022/07/14 00:10:51;;;;;;;2.08;1.02;;;22.10;58.70;;;;;;5019320;28;20026;-83
2022/07/14 00:13:17;;;;;;;1.05;0.93;;;22.00;58.80;;;;;;5003365;28;20034;-82
2022/07/14 00:15:42;;;;;;;0.70;0.70;;;22.00;58.80;;;;;;5002879;28;20034;-84
2022/07/14 00:18:08;;;;;;;2.40;1.17;;;22.00;59.50;;;;;;5019455;28;20652;-84
2022/07/14 00:20:34;;;;;;;0.60;0.60;;;22.00;58.90;;;;;;5019298;28;20355;-84
2022/07/14 00:23:00;;;;;;;0.80;0.80;;;22.00;58.90;;;;;;5009310;28;20041;-84
2022/07/14 00:25:26;;;;;;;2.00;0.80;;;22.00;59.00;;;;;;5001768;28;20022;-83
2022/07/14 00:27:53;;;;;;;1.30;0.73;;;21.90;58.90;;;;;;5018607;28;20480;-84
2022/07/14 00:30:20;;;;;;;0.73;0.73;;;21.90;59.00;;;;;;5019466;28;20022;-83
2022/07/14 00:32:46;;;;;;;0.80;0.80;;;21.90;59.00;;;;;;5000330;28;20029;-83
2022/07/14 00:35:12;;;;;;;2.78;0.90;;;21.90;59.10;;;;;;5001043;28;20127;-84
2022/07/14 00:37:38;;;;;;;0.70;0.70;;;21.90;59.20;;;;;;5001592;28;20022;-84
2022/07/14 00:40:06;;;;;;;2.00;1.00;;;21.90;59.20;;;;;;5024938;28;20072;-83
2022/07/14 00:42:40;;;;;;;0.95;0.95;;;21.90;59.10;;;;;;5001696;28;20056;-84
2022/07/14 00:45:06;;;;;;;0.63;0.63;;;21.90;59.10;;;;;;5018064;28;20056;-82
2022/07/14 00:47:32;;;;;;;0.70;0.70;;;21.90;59.10;;;;;;5018953;28;20026;-84
2022/07/14 00:49:58;;;;;;;0.93;0.93;;;21.90;59.10;;;;;;5024156;28;20078;-84
2022/07/14 00:52:27;;;;;;;0.73;0.73;;;21.90;59.20;;;;;;5020072;28;20032;-82
2022/07/14 00:54:53;;;;;;;1.35;0.80;;;21.80;59.20;;;;;;5019356;28;20033;-83
2022/07/14 00:57:19;;;;;;;0.95;0.95;;;21.80;59.30;;;;;;5019475;28;20026;-84
2022/07/14 00:59:47;;;;;;;0.80;0.80;;;21.80;59.30;;;;;;5025013;28;20041;-80
2022/07/14 01:02:13;;;;;;;0.85;0.85;;;21.80;59.30;;;;;;5017131;28;20114;-80
2022/07/14 01:04:38;;;;;;;0.57;0.57;;;21.80;59.30;;;;;;5019337;28;20037;-83
2022/07/14 01:07:04;;;;;;;0.80;0.80;;;21.80;59.40;;;;;;5020284;28;20037;-83
2022/07/14 01:09:30;;;;;;;0.88;0.88;;;21.80;59.50;;;;;;5019674;28;20022;-83
2022/07/14 01:11:56;;;;;;;0.60;0.60;;;21.80;60.20;;;;;;5018444;28;20089;-83
2022/07/14 01:14:22;;;;;;;0.98;0.82;;;21.70;59.50;;;;;;5001699;28;20060;-84
2022/07/14 01:16:53;;;;;;;0.63;0.60;;;21.70;59.50;;;;;;5009898;23;20057;-81
2022/07/14 01:19:20;;;;;;;2.47;0.77;;;21.70;59.60;;;;;;4991552;28;20022;-81
2022/07/14 01:21:46;;;;;;;0.68;0.68;;;21.70;59.80;;;;;;5011533;28;20030;-81
2022/07/14 01:24:12;;;;;;;1.40;0.70;;;21.70;59.70;;;;;;5022753;28;20018;-83
2022/07/14 01:26:38;;;;;;;0.80;0.80;;;21.70;59.80;;;;;;5022482;28;20489;-82
2022/07/14 01:29:05;;;;;;;0.70;0.70;;;21.70;59.80;;;;;;5022591;28;20026;-80
2022/07/14 01:31:30;;;;;;;0.80;0.80;;;21.70;59.90;;;;;;5021263;28;20014;-81
2022/07/14 01:33:56;;;;;;;0.60;0.60;;;21.70;59.90;;;;;;5022964;28;20384;-80
2022/07/14 01:36:22;;;;;;;0.57;0.55;;;21.80;59.90;;;;;;5023484;28;20144;-80
2022/07/14 01:38:47;;;;;;;0.70;0.70;;;21.80;59.80;;;;;;5020889;28;20033;-80
2022/07/14 01:41:13;;;;;;;0.75;0.75;;;21.80;59.80;;;;;;5024164;28;20092;-82
2022/07/14 01:43:38;;;;;;;0.57;0.57;;;21.80;59.80;;;;;;5025903;28;20396;-80
2022/07/14 01:46:04;;;;;;;0.90;0.80;;;21.80;59.80;;;;;;5025194;28;20257;-80
2022/07/14 01:48:30;;;;;;;0.70;0.70;;;21.80;60.00;;;;;;5009429;28;20439;-80
2022/07/14 01:50:55;;;;;;;1.00;0.90;;;21.80;60.20;;;;;;5027060;28;20029;-80
2022/07/14 01:53:21;;;;;;;0.80;0.80;;;21.80;60.30;;;;;;5027366;28;20029;-81
2022/07/14 01:55:47;;;;;;;1.70;1.00;;;21.80;60.40;;;;;;4998317;28;20117;-80
2022/07/14 01:58:12;;;;;;;0.80;0.80;;;21.70;60.50;;;;;;5006274;28;20080;-80
2022/07/14 02:00:40;;;;;;;0.50;0.50;;;21.70;60.60;;;;;;4991064;28;20472;-83
2022/07/14 02:03:06;;;;;;;0.73;0.73;;;21.70;60.70;;;;;;5007548;28;20018;-79
2022/07/14 02:05:31;;;;;;;1.00;0.75;;;21.60;60.90;;;;;;5008977;28;20057;-80
2022/07/14 02:07:57;;;;;;;0.90;0.90;;;21.60;61.10;;;;;;5007640;28;20027;-80
2022/07/14 02:13:07;;;;;;;0.80;0.80;;;21.50;61.40;;;;;;5014056;28;20049;-80
2022/07/14 02:15:32;;;;;;;1.65;0.70;;;21.40;61.60;;;;;;4990532;28;20034;-80
2022/07/14 02:17:58;;;;;;;0.80;0.70;;;21.40;61.70;;;;;;4990055;28;20035;-80
2022/07/14 02:20:25;;;;;;;2.30;0.90;;;21.30;61.80;;;;;;5009254;28;20033;-81
2022/07/14 02:22:50;;;;;;;1.38;0.82;;;21.30;62.10;;;;;;5025333;28;20014;-80
2022/07/14 02:25:16;;;;;;;1.30;0.95;;;21.20;62.20;;;;;;5005286;28;20040;-79
2022/07/14 02:27:42;;;;;;;1.40;0.77;;;21.10;62.30;;;;;;5022938;28;20026;-79
2022/07/14 02:30:08;;;;;;;0.90;0.90;;;21.10;62.60;;;;;;5008258;28;20112;-79
2022/07/14 02:32:33;;;;;;;0.90;0.90;;;21.00;62.80;;;;;;5022235;28;20085;-79
2022/07/14 02:34:59;;;;;;;0.57;0.57;;;20.90;63.10;;;;;;5024289;28;20028;-81
2022/07/14 02:37:25;;;;;;;0.65;0.65;;;20.90;63.40;;;;;;5027351;28;20088;-80
2022/07/14 02:39:51;;;;;;;1.58;0.60;;;20.80;63.70;;;;;;5027952;28;20045;-82
2022/07/14 02:42:17;;;;;;;0.98;0.98;;;20.80;63.90;;;;;;5009090;28;20036;-79
2022/07/14 02:44:42;;;;;;;0.80;0.80;;;20.80;64.10;;;;;;5029552;28;20038;-86
2022/07/14 02:47:08;;;;;;;0.52;0.52;;;20.70;64.20;;;;;;5027078;28;20096;-79
2022/07/14 02:49:34;;;;;;;0.70;0.70;;;20.70;64.50;;;;;;4987678;28;20033;-79
2022/07/14 02:51:59;;;;;;;0.70;0.70;;;20.70;64.80;;;;;;5023699;28;20028;-82
2022/07/14 02:54:25;;;;;;;1.40;0.70;;;20.60;64.90;;;;;;5027539;28;20026;-81
2022/07/14 02:56:50;;;;;;;1.05;0.95;;;20.60;65.10;;;;;;5025647;28;20123;-81
2022/07/14 02:59:16;;;;;;;0.82;0.82;;;20.50;65.40;;;;;;5025683;28;20105;-80
2022/07/14 03:01:42;;;;;;;0.55;0.55;;;20.40;65.70;;;;;;5027121;28;20037;-81
2022/07/14 03:04:07;;;;;;;2.60;0.90;;;20.40;65.90;;;;;;5022884;28;20026;-80
2022/07/14 03:06:33;;;;;;;0.88;0.80;;;20.40;66.20;;;;;;5019570;28;20360;-81
2022/07/14 03:08:59;;;;;;;0.80;0.77;;;20.40;66.60;;;;;;5006564;28;20041;-82
2022/07/14 03:11:24;;;;;;;1.88;1.25;;;20.40;66.80;;;;;;5021964;28;20030;-80
2022/07/14 03:13:50;;;;;;;2.70;1.13;;;20.40;67.10;;;;;;5003925;28;20116;-80
2022/07/14 03:16:16;;;;;;;2.10;0.73;;;20.40;67.30;;;;;;5020005;28;20021;-80
2022/07/14 03:18:41;;;;;;;0.80;0.80;;;20.50;67.30;;;;;;5019798;28;20022;-81
2022/07/14 03:21:09;;;;;;;1.50;1.30;;;20.50;67.40;;;;;;5003915;28;20049;-82
2022/07/14 03:23:35;;;;;;;1.35;1.00;;;20.50;67.50;;;;;;5019370;28;20042;-86
2022/07/14 03:26:01;;;;;;;0.70;0.70;;;20.50;67.50;;;;;;5017783;28;20118;-84
2022/07/14 03:28:30;;;;;;;0.80;0.80;;;20.60;67.70;;;;;;4995601;28;20034;-82
2022/07/14 03:30:56;;;;;;;1.50;1.20;;;20.60;67.60;;;;;;4994673;28;20034;-84
2022/07/14 03:33:23;;;;;;;0.80;0.80;;;20.60;67.50;;;;;;5012556;28;20025;-81
2022/07/14 03:35:50;;;;;;;1.08;0.80;;;20.70;67.40;;;;;;5010698;28;20027;-80
2022/07/14 03:38:16;;;;;;;1.65;1.10;;;20.70;67.40;;;;;;5009866;28;20019;-82
2022/07/14 03:40:42;;;;;;;1.08;1.00;;;20.60;67.30;;;;;;5004461;28;20031;-83
2022/07/14 03:43:08;;;;;;;2.45;0.95;;;20.60;67.40;;;;;;4989282;28;20034;-79
2022/07/14 03:45:33;;;;;;;1.23;1.08;;;20.50;67.40;;;;;;5004723;28;20411;-80
2022/07/14 03:47:59;;;;;;;1.48;1.08;;;20.40;67.40;;;;;;4982414;28;20046;-80
2022/07/14 03:50:24;;;;;;;2.70;1.17;;;20.40;67.50;;;;;;5003651;28;20022;-79
2022/07/14 03:52:50;;;;;;;2.67;1.10;;;20.30;67.60;;;;;;5025819;28;20431;-84
2022/07/14 03:55:16;;;;;;;0.85;0.80;;;20.30;67.40;;;;;;5032121;28;20033;-83
2022/07/14 03:57:42;;;;;;;1.40;0.90;;;20.20;67.10;;;;;;5021789;28;20033;-80
2022/07/14 04:00:08;;;;;;;0.63;0.63;;;20.20;67.00;;;;;;5025445;28;20033;-80
2022/07/14 04:02:34;;;;;;;0.85;0.80;;;20.20;66.70;;;;;;5026695;28;20274;-80
2022/07/14 04:04:59;;;;;;;0.85;0.85;;;20.30;66.60;;;;;;5008955;28;20072;-81
2022/07/14 04:07:25;;;;;;;0.95;0.88;;;20.20;66.30;;;;;;5024955;28;20029;-80
2022/07/14 04:09:51;;;;;;;0.93;0.90;;;20.30;66.30;;;;;;5019276;28;20022;-84
2022/07/14 04:12:16;;;;;;;0.93;0.93;;;20.40;66.20;;;;;;4994015;28;20026;-81
2022/07/14 04:14:42;;;;;;;1.08;0.95;;;20.50;65.90;;;;;;5002215;28;20033;-80
2022/07/14 04:17:08;;;;;;;1.27;0.77;;;20.60;65.40;;;;;;5012540;28;20038;-83
2022/07/14 04:19:34;;;;;;;1.52;0.73;;;20.80;65.00;;;;;;5009738;28;20077;-80
2022/07/14 04:22:00;;;;;;;0.70;0.70;;;20.90;64.50;;;;;;5014893;28;20025;-83
2022/07/14 04:24:26;;;;;;;0.65;0.65;;;21.10;63.90;;;;;;5013552;28;20005;-81
2022/07/14 04:26:51;;;;;;;2.28;0.70;;;21.10;63.30;;;;;;5031125;28;20033;-81
2022/07/14 04:29:18;;;;;;;2.42;1.23;;;21.20;63.00;;;;;;5029991;28;20026;-83
2022/07/14 04:31:43;;;;;;;1.13;1.00;;;21.10;62.90;;;;;;5031001;28;20022;-83
2022/07/14 04:34:10;;;;;;;1.20;0.90;;;21.10;63.00;;;;;;5030307;28;20052;-83
2022/07/14 04:36:36;;;;;;;0.65;0.65;;;21.10;63.30;;;;;;5011813;28;20041;-83
2022/07/14 04:39:04;;;;;;;0.77;0.77;;;21.00;63.50;;;;;;5031186;28;20074;-82
2022/07/14 04:41:29;;;;;;;0.73;0.73;;;21.10;63.60;;;;;;5029210;28;20022;-83
2022/07/14 04:43:55;;;;;;;2.15;0.93;;;21.20;63.60;;;;;;5033146;28;20040;-83
2022/07/14 04:46:21;;;;;;;0.68;0.68;;;21.40;63.20;;;;;;5018824;28;20029;-82
2022/07/14 04:54:16;;;;;;;1.33;0.70;;;22.30;61.00;;;;;;5031911;28;20090;-81
2022/07/14 04:56:42;;;;;;;0.95;0.90;;;22.50;60.10;;;;;;5032236;28;20026;-82
2022/07/14 04:59:08;;;;;;;0.65;0.65;;;22.60;59.60;;;;;;5031468;28;20018;-82
2022/07/14 05:01:33;;;;;;;1.33;1.00;;;22.60;59.50;;;;;;5032391;28;20125;-81
2022/07/14 05:03:59;;;;;;;1.05;0.70;;;22.50;59.60;;;;;;5032527;28;20022;-82
2022/07/14 05:06:25;;;;;;;0.88;0.70;;;22.30;60.00;;;;;;5033133;28;20033;-82
2022/07/14 05:08:50;;;;;;;0.80;0.80;;;22.20;60.50;;;;;;5032554;28;20022;-83
2022/07/14 05:11:16;;;;;;;0.70;0.70;;;22.20;60.90;;;;;;5033088;28;20065;-82
2022/07/14 05:13:42;;;;;;;2.83;1.10;;;22.20;61.10;;;;;;5031818;28;20113;-82
2022/07/14 05:16:08;;;;;;;1.10;1.08;;;22.40;60.80;;;;;;5032064;28;20053;-82
2022/07/14 05:18:33;;;;;;;1.00;1.00;;;22.60;60.50;;;;;;5016033;28;20041;-82
2022/07/14 05:20:59;;;;;;;0.98;0.98;;;22.80;60.10;;;;;;5033276;28;20026;-81
2022/07/14 05:23:24;;;;;;;0.90;0.73;;;23.30;59.40;;;;;;5035746;28;20078;-82
2022/07/14 05:25:50;;;;;;;0.85;0.70;;;23.70;58.40;;;;;;5036116;28;20101;-82
2022/07/14 05:28:16;;;;;;;0.70;0.70;;;25.10;58.10;;;;;;5035437;28;20018;-83
2022/07/14 05:30:42;;;;;;;0.85;0.80;;;27.50;52.90;;;;;;5035241;28;20026;-82
2022/07/14 05:33:08;;;;;;;0.70;0.70;;;28.70;51.10;;;;;;5019595;28;20033;-83
2022/07/14 05:35:34;;;;;;;0.80;0.80;;;30.60;47.60;;;;;;5016202;28;20026;-81
2022/07/14 05:37:59;;;;;;;2.00;0.93;;;30.90;45.70;;;;;;5016097;28;20041;-82
2022/07/14 05:40:25;;;;;;;3.50;1.15;;;30.40;45.50;;;;;;5015522;28;20076;-82
2022/07/14 05:42:51;;;;;;;1.23;1.13;;;31.20;45.70;;;;;;5015505;28;20006;-82
2022/07/14 05:45:17;;;;;;;2.20;1.10;;;33.20;44.20;;;;;;5015978;28;20026;-83
2022/07/14 05:47:43;;;;;;;1.30;1.20;;;35.40;41.80;;;;;;4999387;28;20034;-83
2022/07/14 05:50:09;;;;;;;3.25;1.50;;;36.90;39.70;;;;;;5000100;28;20022;-81
2022/07/14 05:52:35;;;;;;;1.55;1.27;;;37.80;37.80;;;;;;5020834;28;20038;-82
2022/07/14 05:55:01;;;;;;;1.65;1.45;;;38.40;37.20;;;;;;5033741;28;20029;-80
2022/07/14 05:57:27;;;;;;;2.20;1.30;;;38.70;36.20;;;;;;5035351;28;20255;-82
2022/07/14 05:59:53;;;;;;;1.30;1.20;;;39.10;36.00;;;;;;5036372;28;20030;-82
2022/07/14 06:02:18;;;;;;;1.20;1.10;;;39.50;35.70;;;;;;5035856;28;20056;-84
2022/07/14 06:04:45;;;;;;;1.10;1.10;;;39.70;34.90;;;;;;5036008;28;20026;-82
2022/07/14 06:07:13;;;;;;;1.23;1.23;;;39.50;34.60;;;;;;5035827;28;20078;-82
2022/07/14 06:09:40;;;;;;;1.23;1.10;;;39.70;34.60;;;;;;5025665;28;20118;-81
2022/07/14 06:12:07;;;;;;;1.27;1.10;;;39.40;34.40;;;;;;5015814;28;20043;-83
2022/07/14 06:14:33;;;;;;;2.10;1.20;;;39.60;34.40;;;;;;4997695;28;20025;-82
2022/07/14 06:16:59;;;;;;;1.10;1.10;;;39.80;34.10;;;;;;5015699;28;20050;-81
2022/07/14 06:19:25;;;;;;;1.60;1.50;;;39.40;34.00;;;;;;4998179;28;20030;-82
2022/07/14 06:21:50;;;;;;;1.33;1.13;;;39.50;34.00;;;;;;5030509;28;20022;-83
2022/07/14 06:24:16;;;;;;;1.27;1.20;;;39.80;34.10;;;;;;5034238;28;20108;-81
2022/07/14 06:26:42;;;;;;;1.17;1.17;;;40.00;34.00;;;;;;5026123;28;20033;-83
2022/07/14 06:29:10;;;;;;;1.27;1.17;;;40.40;33.80;;;;;;5035407;28;20034;-83
2022/07/14 06:31:36;;;;;;;1.20;1.08;;;40.80;33.40;;;;;;5035249;28;20025;-81
2022/07/14 06:34:03;;;;;;;1.05;1.00;;;41.30;33.00;;;;;;5016987;28;20014;-84
2022/07/14 06:36:29;;;;;;;2.33;1.50;;;41.60;32.60;;;;;;5031393;28;20026;-83
2022/07/14 06:38:55;;;;;;;2.40;1.40;;;41.60;31.80;;;;;;5032663;28;20034;-82
2022/07/14 06:41:21;;;;;;;1.48;1.20;;;41.70;32.30;;;;;;5032642;28;20394;-82
2022/07/14 06:43:47;;;;;;;1.23;1.20;;;41.90;32.50;;;;;;5032609;28;20030;-82
2022/07/14 06:46:17;;;;;;;2.78;1.42;;;42.30;31.70;;;;;;5034840;28;20030;-81
2022/07/14 06:48:43;;;;;;;1.83;1.30;;;42.40;31.60;;;;;;5033651;28;20037;-83
2022/07/14 06:51:09;;;;;;;1.65;1.45;;;42.50;31.60;;;;;;5020545;28;20118;-83
2022/07/14 06:53:34;;;;;;;2.03;1.13;;;42.30;31.40;;;;;;5033278;28;20057;-82
2022/07/14 06:56:00;;;;;;;3.88;1.50;;;40.80;31.50;;;;;;5034191;28;20029;-82
2022/07/14 06:58:26;;;;;;;1.33;1.25;;;38.60;32.60;;;;;;5034791;28;20033;-83
2022/07/14 07:00:51;;;;;;;3.45;1.52;;;36.60;33.80;;;;;;5033838;28;20068;-82
2022/07/14 07:03:18;;;;;;;1.08;1.05;;;35.70;34.80;;;;;;5033421;28;20072;-82
2022/07/14 07:08:28;;;;;;;1.52;1.42;;;35.20;36.30;;;;;;5033614;28;20100;-81
2022/07/14 07:10:58;;;;;;;1.10;1.00;;;36.80;34.90;;;;;;5017206;28;20049;-81
2022/07/14 07:13:24;;;;;;;1.77;1.20;;;36.70;34.80;;;;;;5031937;28;20014;-82
2022/07/14 07:15:50;;;;;;;1.88;1.38;;;36.40;34.60;;;;;;5032825;28;20149;-81
2022/07/14 07:18:16;;;;;;;2.60;1.30;;;35.40;34.90;;;;;;5001952;23;20058;-81
2022/07/14 07:20:43;;;;;;;3.38;1.27;;;34.30;36.30;;;;;;4992242;28;20110;-81
2022/07/14 07:23:09;;;;;;;2.95;1.80;;;33.70;37.00;;;;;;4980777;28;20101;-82
2022/07/14 07:25:35;;;;;;;1.33;1.23;;;32.80;38.20;;;;;;4995777;28;20356;-82
2022/07/14 07:28:01;;;;;;;1.48;1.30;;;32.00;39.40;;;;;;4981124;28;20027;-83
2022/07/14 07:30:27;;;;;;;1.30;1.20;;;31.40;39.90;;;;;;4980758;28;20424;-83
2022/07/14 07:32:53;;;;;;;1.58;1.27;;;30.80;40.80;;;;;;4984938;28;20082;-82
2022/07/14 07:35:19;;;;;;;1.25;1.15;;;30.30;41.40;;;;;;4982339;28;20027;-83
2022/07/14 07:37:45;;;;;;;1.63;1.30;;;29.80;41.50;;;;;;4984368;28;20022;-82
2022/07/14 07:40:11;;;;;;;5.35;1.25;;;29.50;42.40;;;;;;4966063;28;20417;-82
2022/07/14 07:42:37;;;;;;;1.70;1.20;;;29.20;42.80;;;;;;4985319;28;20027;-83
2022/07/14 07:45:03;;;;;;;2.75;1.40;;;29.00;43.50;;;;;;4991470;28;20030;-82
2022/07/14 07:47:29;;;;;;;3.65;1.52;;;28.90;43.90;;;;;;4996111;28;20023;-82
2022/07/14 07:49:55;;;;;;;2.35;1.40;;;28.70;44.50;;;;;;4992180;28;20033;-81
2022/07/14 07:52:21;;;;;;;2.70;1.30;;;28.60;44.80;;;;;;4979790;28;20038;-82
2022/07/14 07:54:47;;;;;;;1.98;1.25;;;28.60;44.70;;;;;;4991000;28;20035;-82
2022/07/14 07:57:14;;;;;;;1.80;1.35;;;28.50;44.90;;;;;;4995576;28;20026;-81
2022/07/14 07:59:40;;;;;;;2.78;1.58;;;28.40;45.50;;;;;;4981200;28;20026;-81
2022/07/14 08:02:05;;;;;;;1.77;1.50;;;28.30;45.40;;;;;;4980358;28;20031;-80
2022/07/14 08:04:34;;;;;;;3.03;2.03;;;28.10;45.70;;;;;;4981305;28;20022;-81
2022/07/14 08:07:00;;;;;;;1.95;1.20;;;28.10;45.80;;;;;;4990541;28;20037;-81
2022/07/14 08:09:26;;;;;;;1.95;1.13;;;28.00;45.60;;;;;;4971117;28;20023;-82
2022/07/14 08:11:51;;;;;;;1.63;1.45;;;28.00;45.80;;;;;;4991370;28;20035;-81
2022/07/14 08:17:02;;;;;;;1.90;1.30;;;28.00;45.70;;;;;;4990839;28;20050;-82
2022/07/14 08:19:27;;;;;;;6.32;1.45;;;28.00;45.60;;;;;;4995493;28;20019;-81
2022/07/14 08:21:54;;;;;;;3.72;1.35;;;28.00;44.90;;;;;;4966481;28;20030;-82
2022/07/14 08:24:20;;;;;;;4.30;1.27;;;27.90;44.70;;;;;;4967957;28;20030;-82
2022/07/14 08:26:46;;;;;;;2.67;1.50;;;27.90;45.00;;;;;;4966824;28;20023;-80
2022/07/14 08:29:13;;;;;;;2.47;1.30;;;27.90;45.50;;;;;;4978038;28;20030;-83
2022/07/14 08:31:39;;;;;;;2.03;1.20;;;27.90;45.30;;;;;;4963035;28;20468;-83
2022/07/14 08:34:04;;;;;;;1.40;1.30;;;27.90;45.20;;;;;;4963234;28;20054;-83
2022/07/14 08:36:30;;;;;;;1.60;1.35;;;28.10;45.40;;;;;;4962147;28;20027;-83
2022/07/14 08:38:56;;;;;;;1.73;1.33;;;28.10;44.80;;;;;;4961773;28;20484;-82
2022/07/14 08:41:22;;;;;;;2.15;0.95;;;28.10;43.20;;;;;;4962847;28;20450;-83
2022/07/14 08:43:48;;;;;;;1.42;1.33;;;28.20;39.60;;;;;;4960969;28;20038;-82
2022/07/14 08:46:15;;;;;;;6.40;1.20;;;28.30;38.90;;;;;;4971720;28;20030;-83
2022/07/14 08:48:41;;;;;;;4.65;1.08;;;28.50;40.50;;;;;;4980428;28;20098;-85
2022/07/14 08:51:08;;;;;;;3.13;1.10;;;28.60;40.70;;;;;;4978092;28;20122;-82
2022/07/14 08:53:35;;;;;;;3.00;1.20;;;28.70;39.50;;;;;;4972761;28;20054;-82
2022/07/14 08:56:01;;;;;;;1.27;1.10;;;28.90;38.70;;;;;;4981957;28;20038;-83
2022/07/14 08:58:26;;;;;;;2.70;1.50;;;29.00;38.50;;;;;;4988216;28;20057;-84
2022/07/14 09:00:53;;;;;;;1.25;1.15;;;29.00;38.20;;;;;;4991458;28;20034;-83
2022/07/14 09:03:19;;;;;;;1.35;1.13;;;29.10;38.90;;;;;;4992970;28;20076;-83
2022/07/14 09:05:45;;;;;;;2.22;1.15;;;29.20;38.30;;;;;;4991227;28;20019;-82
2022/07/14 09:08:14;;;;;;;3.97;0.95;;;29.10;39.40;;;;;;4991283;28;20053;-83
2022/07/14 09:10:42;;;;;;;1.20;1.10;;;29.20;38.90;;;;;;4992281;28;20026;-82
2022/07/14 09:13:19;;;;;;;1.40;1.30;;;29.30;37.80;;;;;;4990613;28;20022;-82
2022/07/14 09:16:09;;;;;;;1.70;1.13;;;29.40;38.00;;;;;;4973786;28;20022;-82
2022/07/14 09:18:35;;;;;;;1.92;1.27;;;29.50;38.00;;;;;;4991029;28;20456;-82
2022/07/14 09:21:23;;;;;;;2.72;1.10;;;29.70;37.80;;;;;;4977808;28;20039;-82
2022/07/14 09:23:49;;;;;;;2.38;1.10;;;29.80;37.60;;;;;;4980416;28;20030;-83
2022/07/14 09:26:18;;;;;;;4.13;1.30;;;29.90;37.60;;;;;;4971292;28;20364;-82
2022/07/14 09:28:46;;;;;;;1.00;1.00;;;29.90;37.40;;;;;;4972199;28;20023;-82
2022/07/14 09:31:40;;;;;;;2.35;1.40;;;29.90;37.20;;;;;;4953952;29;20069;-82
2022/07/14 09:34:06;;;;;;;1.40;1.30;;;29.90;37.70;;;;;;4973162;29;20035;-81
2022/07/14 09:36:37;;;;;;;2.38;1.50;;;30.00;38.20;;;;;;4972515;29;20087;-82
2022/07/14 09:39:05;;;;;;;3.13;1.23;;;30.00;38.10;;;;;;4969454;28;20055;-80
2022/07/14 09:41:35;;;;;;;1.10;1.10;;;30.10;37.10;;;;;;4976695;28;20191;-81
2022/07/14 09:44:09;;;;;;;1.65;1.00;;;30.20;37.20;;;;;;4992568;28;20042;-84
2022/07/14 09:46:45;;;;;;;0.90;0.90;;;30.30;37.00;;;;;;4992720;28;20025;-81
2022/07/14 09:49:11;;;;;;;1.33;0.80;;;30.50;36.10;;;;;;4975440;28;20465;-82
2022/07/14 09:51:53;;;;;;;1.13;0.90;;;30.50;36.20;;;;;;4992308;28;20035;-81
2022/07/14 09:54:37;;;;;;;2.17;1.17;;;30.70;34.30;;;;;;4991162;28;20022;-81
2022/07/14 09:57:12;;;;;;;0.88;0.88;;;30.90;35.10;;;;;;5016582;28;20053;-80
2022/07/14 09:59:45;;;;;;;1.85;1.25;;;31.00;35.50;;;;;;4999070;28;20122;-81
2022/07/14 10:02:15;;;;;;;2.40;1.60;;;31.00;35.10;;;;;;4995660;28;20030;-80
2022/07/14 10:04:42;;;;;;;2.35;0.77;;;31.10;35.30;;;;;;5011817;28;20081;-81
2022/07/14 10:07:08;;;;;;;2.75;1.35;;;31.10;34.80;;;;;;4997896;28;20014;-80
2022/07/14 10:09:37;;;;;;;2.65;1.10;;;30.90;35.80;;;;;;5018246;28;20026;-80
2022/07/14 10:12:05;;;;;;;1.80;1.60;;;30.90;35.10;;;;;;5018379;28;20041;-80
2022/07/14 10:14:31;;;;;;;1.23;1.10;;;31.10;35.90;;;;;;5017840;28;20030;-79
2022/07/14 10:16:58;;;;;;;3.33;1.48;;;31.20;35.00;;;;;;5018209;28;20018;-80
2022/07/14 10:19:25;;;;;;;3.28;1.27;;;31.40;34.90;;;;;;5012872;28;20018;-81
2022/07/14 10:21:54;;;;;;;1.85;1.45;;;31.40;35.40;;;;;;4986599;28;20029;-80
2022/07/14 10:24:21;;;;;;;1.92;1.00;;;31.40;35.50;;;;;;4996135;28;20011;-81
2022/07/14 10:26:47;;;;;;;1.73;1.08;;;31.70;34.70;;;;;;4995860;28;20022;-81
2022/07/14 10:29:14;;;;;;;1.10;1.00;;;32.00;34.90;;;;;;4990930;28;20027;-82
2022/07/14 10:32:18;;;;;;;2.90;1.38;;;32.10;34.80;;;;;;4978190;28;20039;-81
2022/07/14 10:35:27;;;;;;;5.32;1.10;;;32.20;35.00;;;;;;4941341;28;20037;-80
2022/07/14 10:38:08;;;;;;;1.45;1.10;;;32.30;33.80;;;;;;4915659;29;20035;-81
2022/07/14 10:40:52;;;;;;;1.20;0.82;;;32.40;33.00;;;;;;4972794;28;20027;-82
2022/07/14 10:43:24;;;;;;;0.90;0.90;;;32.40;33.00;;;;;;4955193;29;20030;-82
2022/07/14 10:45:53;;;;;;;1.50;0.93;;;32.40;33.30;;;;;;4970878;29;20034;-80
2022/07/14 10:48:29;;;;;;;1.33;1.15;;;32.40;33.80;;;;;;4998229;28;20169;-81
2022/07/14 10:51:26;;;;;;;2.75;1.40;;;32.40;34.00;;;;;;4985309;28;20499;-81
2022/07/14 10:54:12;;;;;;;1.80;1.30;;;32.50;34.30;;;;;;4988432;28;20030;-82
2022/07/14 10:56:40;;;;;;;2.65;1.20;;;32.70;34.20;;;;;;4988165;28;20050;-82
2022/07/14 10:59:26;;;;;;;2.13;1.00;;;32.90;33.80;;;;;;4988439;28;20035;-82
2022/07/14 11:02:13;;;;;;;1.88;1.05;;;33.00;33.60;;;;;;4974379;28;20038;-82
2022/07/14 11:04:57;;;;;;;7.45;1.50;;;33.00;33.80;;;;;;4991377;28;20517;-82
2022/07/14 11:07:50;;;;;;;4.88;1.00;;;33.10;33.30;;;;;;5008977;28;20470;-81
2022/07/14 11:10:19;;;;;;;1.38;1.08;;;33.20;33.50;;;;;;4997813;28;20097;-79
2022/07/14 11:13:03;;;;;;;1.20;1.10;;;33.40;33.00;;;;;;4997746;28;20030;-80
2022/07/14 11:15:46;;;;;;;3.08;1.15;;;33.40;33.60;;;;;;5011040;28;20082;-81
2022/07/14 11:18:35;;;;;;;2.40;1.38;;;33.40;33.50;;;;;;4988585;28;20061;-83
2022/07/14 11:21:06;;;;;;;2.85;1.13;;;33.40;33.70;;;;;;4999475;28;20534;-81
2022/07/14 11:23:32;;;;;;;1.35;1.25;;;33.30;33.90;;;;;;4989137;28;20033;-81
2022/07/14 11:26:16;;;;;;;1.60;1.50;;;33.20;34.10;;;;;;4987541;28;20460;-83
2022/07/14 11:28:48;;;;;;;2.80;1.10;;;33.30;34.20;;;;;;4970305;28;20037;-80
2022/07/14 11:31:21;;;;;;;4.00;1.40;;;33.40;32.80;;;;;;4972657;28;20396;-80
2022/07/14 11:36:44;;;;;;;5.25;1.40;;;33.40;33.40;;;;;;4988330;28;20038;-81
2022/07/14 11:39:36;;;;;;;4.82;1.20;;;33.40;33.10;;;;;;4975575;28;20057;-81
2022/07/14 11:42:14;;;;;;;4.63;1.17;;;33.40;33.00;;;;;;5007896;28;20042;-82
2022/07/14 11:44:39;;;;;;;1.15;1.08;;;33.40;33.00;;;;;;5015661;28;20098;-81
2022/07/14 11:47:09;;;;;;;2.33;1.42;;;33.60;33.40;;;;;;5013928;28;20049;-82
2022/07/14 11:49:38;;;;;;;2.72;1.45;;;33.90;33.20;;;;;;4989745;28;20165;-81
2022/07/14 11:52:06;;;;;;;2.58;1.10;;;33.90;33.00;;;;;;4990026;28;20050;-82
2022/07/14 11:54:32;;;;;;;2.65;1.05;;;33.80;33.10;;;;;;4988472;28;20111;-82
2022/07/14 11:57:02;;;;;;;1.10;1.10;;;33.80;31.80;;;;;;4988676;28;20081;-80
2022/07/14 11:59:29;;;;;;;1.70;1.58;;;33.90;32.00;;;;;;4982497;28;20026;-81
2022/07/14 12:02:11;;;;;;;2.05;1.10;;;33.90;32.30;;;;;;5005918;28;20057;-82
2022/07/14 12:04:53;;;;;;;4.00;1.23;;;34.00;32.70;;;;;;5005702;28;20026;-82
2022/07/14 12:07:20;;;;;;;2.30;1.27;;;34.30;31.60;;;;;;4987530;28;20026;-82
2022/07/14 12:09:47;;;;;;;3.17;1.33;;;34.40;31.40;;;;;;5010021;28;20042;-83
2022/07/14 12:12:13;;;;;;;12.18;3.70;;;34.50;30.50;;;;;;5002358;28;20022;-82
2022/07/14 12:14:50;;;;;;;7.25;1.50;;;34.30;30.30;;;;;;4998800;28;20032;-83
2022/07/14 12:17:18;;;;;;;1.40;0.90;;;34.20;30.60;;;;;;5004853;28;20049;-81
2022/07/14 12:19:45;;;;;;;1.83;0.90;;;34.20;30.90;;;;;;4987531;28;20022;-83
2022/07/14 12:22:11;;;;;;;4.15;0.90;;;34.10;30.50;;;;;;4987456;28;20542;-81
2022/07/14 12:24:38;;;;;;;5.18;0.98;;;34.10;31.40;;;;;;4995022;28;20015;-81
2022/07/14 12:27:10;;;;;;;2.55;1.50;;;34.20;31.00;;;;;;4967019;28;20022;-80
2022/07/14 12:29:46;;;;;;;2.65;1.15;;;34.30;31.30;;;;;;4986325;28;20029;-81
2022/07/14 12:32:11;;;;;;;2.10;1.13;;;34.30;30.90;;;;;;4993039;28;20463;-82
2022/07/14 12:34:38;;;;;;;3.30;1.35;;;34.30;30.90;;;;;;5005428;28;20098;-81
2022/07/14 12:37:04;;;;;;;2.13;1.10;;;34.30;30.90;;;;;;4988225;28;20037;-81
2022/07/14 12:39:31;;;;;;;1.23;1.23;;;34.20;31.20;;;;;;4989410;28;20118;-81
2022/07/14 12:42:03;;;;;;;1.30;1.20;;;34.30;31.00;;;;;;5007159;28;20022;-81
2022/07/14 12:44:30;;;;;;;2.90;0.93;;;34.30;31.30;;;;;;5006465;28;20101;-80
2022/07/14 12:47:11;;;;;;;1.70;1.20;;;34.20;31.00;;;;;;4988629;28;20022;-83
2022/07/14 12:49:45;;;;;;;1.58;1.20;;;34.20;31.60;;;;;;4999129;28;20035;-81
2022/07/14 12:52:12;;;;;;;1.13;1.02;;;34.30;31.30;;;;;;4984427;28;20116;-83
2022/07/14 12:54:39;;;;;;;1.50;1.17;;;34.40;31.50;;;;;;4983949;28;20027;-83
2022/07/14 12:57:05;;;;;;;1.17;1.00;;;34.50;30.60;;;;;;4984445;28;20031;-81
2022/07/14 12:59:36;;;;;;;1.67;1.42;;;34.60;30.10;;;;;;4985230;28;20038;-81
2022/07/14 13:02:02;;;;;;;1.58;1.48;;;34.70;30.80;;;;;;4985147;28;20031;-82
2022/07/14 13:04:40;;;;;;;1.60;1.42;;;34.70;30.90;;;;;;4985360;28;20045;-82
2022/07/14 13:07:27;;;;;;;2.80;1.40;;;34.80;30.60;;;;;;4980915;28;20053;-81
2022/07/14 13:10:05;;;;;;;1.63;1.50;;;34.90;30.50;;;;;;4969711;28;20077;-82